• Join FlightAware (Why Join?)
  • Login
  • US Flag 
03:02PM EDT


 

Airport Tracker/Info


-or-


 

Live Flight TrackerFlight Track Log ✈ VH-UNU ✈ 24-Apr-2013 ✈ YSBK / BWU - YSBK / BWU

Flight Track Log - Related Links

Times and Time Zones

All times are in EDT time to prevent confusion due to time zone crossing. See the VH-UNU flight status page for this flight to view local times or setup timezone preferences in your user account.

Time Position Orientation Groundspeed Altitude Reporting Facility
EDT Latitude Longitude Course Direction KTS MPH feet Rate Location/Type
02:49AM -32.7500 151.5333 360° North 6,300  Level Aus ATC (Calculated)
02:51AM -32.7500 151.5333 360° North 6,300  Level Aus ATC (Calculated)
02:52AM -32.7500 151.5333 215° Southwest 6,300  Level Aus ATC (Calculated)
02:53AM -32.7797 151.5081 215° Southwest  Level FlightAware Approximate
02:54AM -32.7716 151.5150 215° Southwest  Level FlightAware Approximate
02:54AM -32.7500 151.5333 215° Southwest 6,300  Level Aus ATC (Calculated)
02:55AM -32.7890 151.5003 215° Southwest  Level FlightAware Approximate
02:56AM -32.8063 151.4857 215° Southwest  Level FlightAware Approximate
02:57AM -32.7898 151.4996 215° Southwest  Level FlightAware Approximate
02:58AM -32.8071 151.4849 215° Southwest  Level FlightAware Approximate
02:59AM -32.8245 151.4702 215° Southwest  Level FlightAware Approximate
02:59AM -32.7267 151.5108 165° South 6,300  Level Aus ATC (Calculated)
02:59AM -32.7267 151.5108 202° Southwest 6,300  Level Aus ATC (Calculated)
03:00AM -32.8418 151.4556 215° Southwest  Level FlightAware Approximate
03:01AM -32.8591 151.4409 215° Southwest  Level FlightAware Approximate
03:02AM -32.8764 151.4262 215° Southwest  Level FlightAware Approximate
03:03AM -32.7822 151.4664 214° Southwest  Level FlightAware Approximate
03:04AM -32.8096 151.4751 30° Northeast  Level Estimated
03:05AM -32.8252 151.4579 223° Southwest  Level FlightAware Approximate
03:05AM -32.7267 151.5108 207° Southwest 6,300  Level Aus ATC (Calculated)
03:06AM -32.8408 151.4407 223° Southwest  Level FlightAware Approximate
03:07AM -32.8564 151.4235 223° Southwest  Level FlightAware Approximate
03:08AM -32.7710 151.4682 219° Southwest  Level FlightAware Approximate
03:09AM -32.7876 151.4524 219° Southwest  Level FlightAware Approximate
03:10AM -32.8041 151.4365 219° Southwest  Level FlightAware Approximate
03:11AM -32.8207 151.4206 219° Southwest  Level FlightAware Approximate
03:12AM -32.8372 151.4047 219° Southwest  Level FlightAware Approximate
03:13AM -32.8537 151.3888 219° Southwest  Level FlightAware Approximate
03:14AM -32.8703 151.3729 219° Southwest  Level FlightAware Approximate
03:15AM -32.8868 151.3570 219° Southwest  Level FlightAware Approximate
03:16AM -32.9033 151.3411 219° Southwest  Level FlightAware Approximate
03:17AM -32.9199 151.3252 219° Southwest  Level FlightAware Approximate
03:17AM -32.7033 151.4883 216° Southwest 6,300  Level Aus ATC (Calculated)
03:19AM -32.7330 151.4631 216° Southwest  Level FlightAware Approximate
03:20AM -32.7503 151.4484 216° Southwest  Level FlightAware Approximate
03:21AM -32.7676 151.4337 216° Southwest  Level FlightAware Approximate
03:22AM -32.7849 151.4190 216° Southwest  Level FlightAware Approximate
03:23AM -32.8022 151.4043 216° Southwest  Level FlightAware Approximate
03:24AM -32.8194 151.3896 216° Southwest  Level FlightAware Approximate
03:25AM -32.8367 151.3749 216° Southwest  Level FlightAware Approximate
03:26AM -32.8540 151.3601 216° Southwest  Level FlightAware Approximate
03:27AM -32.8744 151.3531 43° Northeast  Level Estimated
03:27AM -32.7033 151.4883 141° Southeast 5,000  Level Aus ATC (Calculated)
03:29AM -32.7289 151.5130 141° Southeast  Level FlightAware Approximate
03:29AM -32.7500 151.5333 360° North 4,500  Level Aus ATC (Calculated)
03:31AM -32.7199 151.5333 North  Level FlightAware Approximate
03:32AM -32.7411 151.5333 180° South  Level FlightAware Approximate
03:33AM -32.7624 151.5333 180° South  Level FlightAware Approximate
03:34AM -32.7411 151.5333 North  Level FlightAware Approximate
03:35AM -32.7624 151.5333 180° South  Level FlightAware Approximate
03:36AM -32.7411 151.5333 North  Level FlightAware Approximate
03:37AM -32.7624 151.5333 180° South  Level FlightAware Approximate
03:38AM -32.7411 151.5333 North  Level FlightAware Approximate
03:39AM -32.7624 151.5333 180° South  Level FlightAware Approximate
03:40AM -32.7411 151.5333 North  Level FlightAware Approximate
03:41AM -32.7624 151.5333 180° South  Level FlightAware Approximate
03:42AM -32.7411 151.5333 North  Level FlightAware Approximate
03:43AM -32.7624 151.5333 180° South  Level FlightAware Approximate
03:44AM -32.7411 151.5333 North  Level FlightAware Approximate
03:44AM -33.1122 151.1393 42° Northeast 4,500  Level Aus ATC (Calculated)
03:46AM -33.0905 151.1630 43° Northeast  Level FlightAware Approximate
03:47AM -33.0748 151.1801 42° Northeast  Level FlightAware Approximate
03:47AM -33.1742 151.0970 36° Northeast 4,500  Level Aus ATC (Calculated)
03:48AM -33.0592 151.1973 42° Northeast  Level FlightAware Approximate
03:49AM -33.1466 151.1255 41° Northeast  Level FlightAware Approximate
03:50AM -33.1305 151.1421 41° Northeast  Level FlightAware Approximate
03:51AM -33.1515 151.1381 222° Southwest  Level Estimated
03:52AM -33.1302 151.1387 North  Level FlightAware Approximate
03:53AM -33.1090 151.1394 North  Level FlightAware Approximate
03:54AM -33.1302 151.1387 181° South  Level FlightAware Approximate
03:55AM -33.1090 151.1394 North  Level FlightAware Approximate
03:56AM -33.1302 151.1387 181° South  Level FlightAware Approximate
03:57AM -33.1090 151.1394 North  Level FlightAware Approximate
03:58AM -33.1302 151.1387 181° South  Level FlightAware Approximate
03:59AM -33.1090 151.1394 North  Level FlightAware Approximate
04:00AM -33.1302 151.1387 181° South  Level FlightAware Approximate
04:01AM -33.1090 151.1394 North  Level FlightAware Approximate
04:02AM -33.1302 151.1387 181° South  Level FlightAware Approximate
04:02AM -33.6074 150.7989 30° Northeast 200  Level Aus ATC (Calculated)
04:04AM -33.5798 150.8180 30° Northeast  Level FlightAware Approximate
04:05AM -33.5614 150.8307 30° Northeast  Level FlightAware Approximate
04:06AM -33.5429 150.8435 30° Northeast  Level FlightAware Approximate
04:07AM -33.5245 150.8562 30° Northeast  Level FlightAware Approximate
04:08AM -33.5061 150.8689 30° Northeast  Level FlightAware Approximate
04:09AM -33.4877 150.8816 30° Northeast  Level FlightAware Approximate
04:10AM -33.4693 150.8943 30° Northeast  Level FlightAware Approximate
04:11AM -33.4508 150.9070 30° Northeast  Level FlightAware Approximate
04:12AM -33.4324 150.9197 30° Northeast  Level FlightAware Approximate
04:12AM -33.9306 150.9878 355° North 200  Level Aus ATC (Calculated)
04:13AM -33.4140 150.9324 30° Northeast  Level FlightAware Approximate
04:14AM -33.9244 150.9883 210° Southwest  Level Estimated
04:15AM -33.9244 150.9883 334° Northwest  Level Estimated
04:16AM -33.9244 150.9883 334° Northwest  Level Estimated
04:17AM -33.9244 150.9883 334° Northwest  Level Estimated
04:18AM -33.9244 150.9883 334° Northwest  Level Estimated
04:19AM -33.9244 150.9883 334° Northwest  Level Estimated
04:20AM -33.9244 150.9883 334° Northwest  Level Estimated
04:21AM -33.9244 150.9883 334° Northwest  Level Estimated
04:22AM -33.9244 150.9883 334° Northwest  Level Estimated
04:23AM -33.9244 150.9883 334° Northwest  Level Estimated
04:24AM -33.9244 150.9883 334° Northwest  Level Estimated
04:25AM -33.9244 150.9883 334° Northwest  Level Estimated
04:26AM -33.9244 150.9883 334° Northwest  Level Estimated
04:27AM -33.9244 150.9883 334° Northwest  Level Estimated
04:28AM -33.9244 150.9883 334° Northwest  Level Estimated
04:29AM -33.9244 150.9883 334° Northwest  Level Estimated
04:30AM -33.9244 150.9883 334° Northwest  Level Estimated